Time;durP1;ratioP1;P1;durP2;ratioP2;P2;SDS_P1;SDS_P2;PMS_P1;PMS_P2;Temp;Humidity;BMP_temperature;BMP_pressure;BME280_temperature;BME280_humidity;BME280_pressure;Samples;Min_cycle;Max_cycle;Signal;HPM_P1;HPM_P2
2023/08/17 00:02:18;;;;;;;14.20;12.40;;;;;;;24.61;77.56;100942.09;104428;1271;98556;-79
2023/08/17 00:05:06;;;;;;;14.40;11.70;;;;;;;24.51;77.78;100938.89;104418;1273;101426;-78
2023/08/17 00:07:51;;;;;;;16.20;12.80;;;;;;;24.46;78.36;100942.52;104277;1273;99118;-78
2023/08/17 00:10:38;;;;;;;16.20;11.90;;;;;;;24.44;78.84;100944.23;104457;1271;97985;-78
2023/08/17 00:13:24;;;;;;;15.50;12.20;;;;;;;24.40;79.26;100946.30;104433;1275;97948;-79
2023/08/17 00:16:09;;;;;;;12.20;10.40;;;;;;;24.38;79.49;100951.12;104400;1274;99228;-78
2023/08/17 00:18:55;;;;;;;13.50;11.10;;;;;;;24.37;79.73;100957.15;104443;1270;101388;-77
2023/08/17 00:21:40;;;;;;;13.50;11.70;;;;;;;24.38;80.09;100966.67;104658;1270;99286;-78
2023/08/17 00:24:26;;;;;;;17.00;12.70;;;;;;;24.41;80.42;100972.27;104412;1273;98083;-76
2023/08/17 00:27:12;;;;;;;16.70;13.10;;;;;;;24.41;81.01;100975.34;104380;1268;99260;-78
2023/08/17 00:29:57;;;;;;;14.40;12.50;;;;;;;24.41;81.10;100976.81;104372;1273;97901;-77
2023/08/17 00:32:45;;;;;;;16.50;12.90;;;;;;;24.41;81.38;100983.38;104440;1288;102585;-77
2023/08/17 00:35:31;;;;;;;16.00;12.50;;;;;;;24.40;81.68;100991.33;104315;1274;100170;-78
2023/08/17 00:38:16;;;;;;;20.50;13.90;;;;;;;24.39;81.64;100988.69;104438;1277;106367;-78
2023/08/17 00:41:02;;;;;;;20.90;14.70;;;;;;;24.36;82.03;100987.64;104752;1271;98003;-79
2023/08/17 00:43:47;;;;;;;20.20;14.30;;;;;;;24.31;82.02;100986.67;104740;1270;98087;-78
2023/08/17 00:46:33;;;;;;;18.90;13.50;;;;;;;24.26;82.06;100986.48;104642;1272;101434;-79
2023/08/17 00:49:18;;;;;;;17.60;14.60;;;;;;;24.24;82.53;100985.57;104597;1276;99106;-78
2023/08/17 00:52:04;;;;;;;15.30;13.10;;;;;;;24.21;82.67;100981.29;104727;1272;99521;-79
2023/08/17 00:54:50;;;;;;;23.00;16.00;;;;;;;24.20;82.62;100980.17;104744;1274;98086;-78
2023/08/17 00:57:36;;;;;;;19.50;14.80;;;;;;;24.21;82.94;100978.80;104684;1274;98525;-78
2023/08/17 01:00:23;;;;;;;19.90;16.10;;;;;;;24.22;83.10;100981.61;104598;1274;103117;-78
2023/08/17 01:03:09;;;;;;;19.50;15.20;;;;;;;24.25;83.32;100985.35;104491;1277;99695;-79
2023/08/17 01:05:56;;;;;;;15.50;13.90;;;;;;;24.26;83.69;100980.69;104622;1274;99000;-79
2023/08/17 01:08:44;;;;;;;16.00;14.20;;;;;;;24.25;84.02;100975.76;104575;1270;99247;-78
2023/08/17 01:11:41;;;;;;;17.80;14.70;;;;;;;24.26;84.21;100977.73;104546;1274;98412;-79
2023/08/17 01:14:43;;;;;;;15.40;12.70;;;;;;;24.25;84.32;100973.84;104564;1276;101375;-79
2023/08/17 01:17:35;;;;;;;17.30;15.00;;;;;;;24.22;84.58;100971.70;104547;1276;100983;-79
2023/08/17 01:20:23;;;;;;;21.40;16.30;;;;;;;24.16;84.74;100973.38;105483;1267;98286;-80
2023/08/17 01:23:09;;;;;;;18.10;14.80;;;;;;;24.11;84.69;100978.11;104858;1272;97793;-80
2023/08/17 01:25:55;;;;;;;18.10;14.40;;;;;;;24.08;84.79;100981.70;104698;1273;98526;-79
2023/08/17 01:28:45;;;;;;;16.60;14.30;;;;;;;24.03;84.83;100982.31;104639;1275;101895;-79
2023/08/17 01:31:43;;;;;;;17.10;14.70;;;;;;;23.96;84.94;100978.42;104791;1271;100135;-80
2023/08/17 01:34:32;;;;;;;16.20;12.60;;;;;;;23.81;85.05;100976.00;104591;1270;106368;-79
2023/08/17 01:37:20;;;;;;;14.50;13.10;;;;;;;23.63;85.21;100975.23;104678;1270;98489;-79
2023/08/17 01:40:08;;;;;;;17.10;14.00;;;;;;;23.47;86.09;100972.38;104725;1274;99610;-79
2023/08/17 01:42:54;;;;;;;17.70;14.00;;;;;;;23.40;86.73;100972.55;104626;1272;102273;-79
2023/08/17 01:45:40;;;;;;;14.90;13.20;;;;;;;23.38;87.11;100970.45;104744;1273;99265;-79
2023/08/17 01:48:25;;;;;;;16.10;13.70;;;;;;;23.40;87.37;100966.91;104625;1270;97945;-79
2023/08/17 01:51:20;;;;;;;15.00;13.30;;;;;;;23.40;87.46;100961.61;104685;1271;97952;-79
2023/08/17 01:54:06;;;;;;;18.20;14.00;;;;;;;23.38;87.57;100957.23;104651;1274;98446;-79
2023/08/17 01:56:52;;;;;;;16.40;14.10;;;;;;;23.37;87.68;100958.10;104627;1273;102637;-78
2023/08/17 01:59:37;;;;;;;17.00;13.30;;;;;;;23.37;87.83;100959.25;104656;1273;99147;-79
2023/08/17 02:02:23;;;;;;;15.80;14.10;;;;;;;23.36;87.86;100952.23;104533;1289;100982;-79
2023/08/17 02:05:08;;;;;;;15.60;13.80;;;;;;;23.37;87.84;100947.92;104479;1276;98200;-79
2023/08/17 02:07:54;;;;;;;17.50;14.60;;;;;;;23.37;87.95;100949.50;104555;1270;99606;-79
2023/08/17 02:10:40;;;;;;;15.00;13.50;;;;;;;23.38;88.01;100948.70;104466;1272;102550;-78
2023/08/17 02:13:27;;;;;;;14.80;13.30;;;;;;;23.38;87.76;100942.84;104435;1273;99140;-79
2023/08/17 02:16:12;;;;;;;17.00;14.20;;;;;;;23.38;87.95;100936.84;104471;1272;98878;-78
2023/08/17 02:18:58;;;;;;;18.90;13.70;;;;;;;23.36;88.13;100934.36;104426;1271;98043;-78
2023/08/17 02:21:45;;;;;;;16.70;14.20;;;;;;;23.35;88.13;100940.30;105070;1273;98516;-77
2023/08/17 02:24:30;;;;;;;16.20;14.40;;;;;;;23.36;88.48;100937.89;104427;1272;102635;-77
2023/08/17 02:27:16;;;;;;;16.00;14.00;;;;;;;23.33;88.43;100940.05;104379;1274;99250;-77
2023/08/17 02:30:03;;;;;;;16.60;14.70;;;;;;;23.31;88.38;100944.72;104429;1271;99078;-77
2023/08/17 02:32:48;;;;;;;15.30;13.80;;;;;;;23.29;88.55;100949.31;105339;1270;97648;-78
2023/08/17 02:35:34;;;;;;;15.30;13.70;;;;;;;23.28;88.78;100950.49;104285;1274;98457;-77
2023/08/17 02:38:19;;;;;;;14.90;13.50;;;;;;;23.27;89.03;100948.35;104287;1274;101395;-77
2023/08/17 02:41:04;;;;;;;16.50;13.80;;;;;;;23.21;88.92;100944.65;104413;1272;99291;-78
2023/08/17 02:43:50;;;;;;;15.50;13.70;;;;;;;23.14;89.01;100943.77;104423;1273;97936;-77
2023/08/17 02:46:35;;;;;;;19.80;14.30;;;;;;;23.09;89.34;100940.46;104420;1268;99330;-77
2023/08/17 02:49:21;;;;;;;17.40;13.90;;;;;;;23.05;89.28;100940.64;104459;1273;98464;-76
2023/08/17 02:52:06;;;;;;;18.10;13.80;;;;;;;23.00;89.26;100936.02;104478;1273;101336;-78
2023/08/17 02:54:52;;;;;;;16.30;13.70;;;;;;;22.97;89.65;100934.56;104351;1279;99115;-77
2023/08/17 02:57:37;;;;;;;15.50;13.90;;;;;;;22.97;89.69;100933.91;104493;1273;98995;-78
2023/08/17 03:00:23;;;;;;;16.60;15.10;;;;;;;22.97;89.54;100931.81;104401;1273;98013;-77
2023/08/17 03:03:09;;;;;;;16.20;13.40;;;;;;;22.95;89.64;100930.48;104393;1273;98070;-77
2023/08/17 03:05:55;;;;;;;16.00;14.10;;;;;;;22.96;89.71;100933.52;104314;1273;102662;-77
2023/08/17 03:08:40;;;;;;;15.30;13.80;;;;;;;23.00;89.48;100940.65;104422;1273;99224;-77
2023/08/17 03:11:25;;;;;;;14.90;13.40;;;;;;;23.04;89.43;100941.17;104438;1273;97996;-79
2023/08/17 03:14:12;;;;;;;17.00;14.00;;;;;;;23.06;89.54;100939.66;104494;1270;97997;-78
2023/08/17 03:16:57;;;;;;;16.70;12.90;;;;;;;23.07;89.46;100943.27;104680;1273;99025;-79
2023/08/17 03:19:43;;;;;;;19.20;14.70;;;;;;;23.07;89.31;100949.17;104938;1271;101367;-78
2023/08/17 03:22:28;;;;;;;21.30;15.30;;;;;;;23.09;89.20;100955.21;104513;1273;99161;-77
2023/08/17 03:25:14;;;;;;;16.30;14.80;;;;;;;23.12;89.23;100960.91;104318;1275;98035;-77
2023/08/17 03:28:01;;;;;;;19.30;15.10;;;;;;;23.15;89.08;100961.21;104422;1275;98006;-78
2023/08/17 03:30:46;;;;;;;17.20;14.90;;;;;;;23.17;89.14;100961.17;104452;1273;98503;-78
2023/08/17 03:33:32;;;;;;;17.30;15.50;;;;;;;23.19;88.90;100963.38;104430;1273;102643;-77
2023/08/17 03:36:18;;;;;;;17.00;15.00;;;;;;;23.19;88.77;100973.50;104358;1275;99301;-78
2023/08/17 03:39:04;;;;;;;15.90;14.30;;;;;;;23.19;88.57;100980.23;104314;1284;98863;-78
2023/08/17 03:41:49;;;;;;;15.90;14.30;;;;;;;23.20;88.96;100988.16;104441;1272;98000;-77
2023/08/17 03:44:35;;;;;;;17.60;14.90;;;;;;;23.21;88.69;100987.79;104471;1270;99581;-77
2023/08/17 03:47:21;;;;;;;14.50;11.10;;;;;;;23.22;88.55;100990.91;104496;1270;101432;-79
2023/08/17 03:50:08;;;;;;;17.00;14.10;;;;;;;23.23;88.50;100995.57;104368;1273;99164;-76
2023/08/17 03:52:55;;;;;;;16.80;14.20;;;;;;;23.25;88.45;100993.39;104345;1276;97994;-78
2023/08/17 03:55:45;;;;;;;14.90;13.20;;;;;;;23.25;88.40;100993.33;104432;1277;98365;-76
2023/08/17 03:58:34;;;;;;;16.10;13.90;;;;;;;23.26;88.32;100993.23;104341;1286;99465;-77
2023/08/17 04:01:19;;;;;;;16.40;14.20;;;;;;;23.26;88.27;101000.98;104605;1273;102146;-77
2023/08/17 04:04:05;;;;;;;15.90;14.00;;;;;;;23.27;88.52;100999.85;104476;1273;99232;-78
2023/08/17 04:06:50;;;;;;;16.20;14.60;;;;;;;23.28;88.22;100995.83;104453;1273;98104;-78
2023/08/17 04:09:36;;;;;;;19.20;14.80;;;;;;;23.29;88.20;100991.18;104574;1270;97989;-80
2023/08/17 04:12:22;;;;;;;18.20;15.50;;;;;;;23.28;88.29;100991.11;104740;1270;98006;-78
2023/08/17 04:15:07;;;;;;;15.60;13.30;;;;;;;23.27;88.11;100995.80;104604;1270;101365;-77
2023/08/17 04:17:53;;;;;;;16.00;14.00;;;;;;;23.24;88.53;100994.70;104395;1282;100557;-76
2023/08/17 04:20:38;;;;;;;16.90;14.60;;;;;;;23.26;88.63;100986.62;104604;1270;97894;-79
2023/08/17 04:23:23;;;;;;;15.70;14.20;;;;;;;23.28;88.55;100985.93;104579;1286;98016;-78
2023/08/17 04:26:09;;;;;;;16.20;14.50;;;;;;;23.29;88.77;100985.99;104704;1270;97920;-78
2023/08/17 04:28:54;;;;;;;17.40;14.80;;;;;;;23.31;88.61;100990.20;104661;1272;102621;-79
2023/08/17 04:31:42;;;;;;;16.20;14.30;;;;;;;23.33;88.62;101000.86;104383;1284;100381;-78
2023/08/17 04:34:28;;;;;;;16.10;14.30;;;;;;;23.36;88.72;101004.35;104328;1275;99214;-78
2023/08/17 04:37:14;;;;;;;15.90;14.30;;;;;;;23.40;88.64;101008.09;104318;1270;98043;-77
2023/08/17 04:40:00;;;;;;;16.30;14.60;;;;;;;23.42;88.84;101006.58;104315;1276;99810;-78
2023/08/17 04:42:46;;;;;;;22.80;16.20;;;;;;;23.45;88.88;101004.67;104416;1270;110073;-78
2023/08/17 04:45:32;;;;;;;22.70;16.50;;;;;;;23.46;88.73;101007.65;104343;1277;100303;-76
2023/08/17 04:48:17;;;;;;;18.50;15.30;;;;;;;23.47;88.56;101006.46;104160;1270;98030;-76
2023/08/17 04:51:05;;;;;;;18.00;15.40;;;;;;;23.49;88.77;101004.34;104484;1272;98541;-78
2023/08/17 04:53:50;;;;;;;20.40;15.10;;;;;;;23.50;88.94;101007.24;104487;1270;97955;-78
2023/08/17 04:56:36;;;;;;;17.80;15.60;;;;;;;23.51;89.01;101008.83;104384;1274;101600;-79
2023/08/17 04:59:21;;;;;;;24.10;16.10;;;;;;;23.52;89.30;101012.89;104403;1270;100102;-78
2023/08/17 05:02:06;;;;;;;18.90;16.00;;;;;;;23.53;89.32;101010.76;104418;1272;99007;-77
2023/08/17 05:04:52;;;;;;;22.30;15.20;;;;;;;23.52;89.68;101004.30;104475;1269;97887;-77
2023/08/17 05:07:38;;;;;;;18.10;15.00;;;;;;;23.48;89.85;101002.08;104401;1270;98544;-77
2023/08/17 05:10:24;;;;;;;21.90;15.50;;;;;;;23.46;90.14;101002.89;104353;1274;102547;-78
2023/08/17 05:13:09;;;;;;;19.60;15.30;;;;;;;23.46;90.69;100999.83;104338;1284;99733;-78
2023/08/17 05:15:57;;;;;;;16.50;14.50;;;;;;;23.49;90.53;100999.63;104296;1273;98542;-78
2023/08/17 05:18:43;;;;;;;18.50;15.20;;;;;;;23.52;91.01;101000.05;104326;1270;97989;-78
2023/08/17 05:21:29;;;;;;;15.80;14.10;;;;;;;23.55;90.94;100997.50;104537;1273;97911;-81
2023/08/17 05:24:15;;;;;;;17.30;15.50;;;;;;;23.59;91.24;100997.67;105286;1276;102164;-83
2023/08/17 05:27:01;;;;;;;21.40;14.70;;;;;;;23.60;91.25;100994.24;105341;1270;100420;-83
2023/08/17 05:29:46;;;;;;;24.20;15.30;;;;;;;23.61;91.20;100995.99;105433;1271;98289;-81
2023/08/17 05:32:32;;;;;;;17.70;15.90;;;;;;;23.63;91.13;100998.03;105385;1273;97850;-82
2023/08/17 05:35:18;;;;;;;22.10;15.60;;;;;;;23.67;90.83;101002.11;105445;1271;99509;-83
2023/08/17 05:38:04;;;;;;;18.00;15.50;;;;;;;23.72;90.81;101002.70;105512;1270;101953;-82
2023/08/17 05:40:56;;;;;;;22.10;15.90;;;;;;;23.77;90.72;101005.48;105152;1271;99220;-83
2023/08/17 05:43:42;;;;;;;19.10;15.10;;;;;;;23.81;90.68;101006.54;105344;1270;98008;-82
2023/08/17 05:46:27;;;;;;;17.90;15.00;;;;;;;23.86;90.65;101000.92;105327;1270;98072;-82
2023/08/17 05:49:13;;;;;;;20.80;15.40;;;;;;;23.91;90.33;101000.08;105357;1270;96365;-81
2023/08/17 05:51:58;;;;;;;19.70;14.60;;;;;;;23.95;90.26;100997.20;105462;1273;101448;-82
2023/08/17 05:54:44;;;;;;;17.30;14.00;;;;;;;23.99;90.23;100991.31;105588;1270;99153;-80
2023/08/17 05:57:29;;;;;;;18.10;14.90;;;;;;;24.04;90.26;100993.45;105492;1273;97890;-82
2023/08/17 06:00:15;;;;;;;17.20;14.30;;;;;;;24.09;90.19;100996.70;105479;1270;98522;-83
2023/08/17 06:03:02;;;;;;;15.60;13.40;;;;;;;24.15;89.55;101000.89;105639;1271;98000;-82
2023/08/17 06:05:47;;;;;;;19.00;13.20;;;;;;;24.20;89.24;101005.09;105429;1273;102540;-83
2023/08/17 06:08:33;;;;;;;14.30;12.60;;;;;;;24.25;88.90;101003.85;105613;1270;99204;-83
2023/08/17 06:11:19;;;;;;;18.70;13.00;;;;;;;24.31;88.76;101000.04;105611;1274;98799;-83
2023/08/17 06:14:05;;;;;;;15.30;13.20;;;;;;;24.37;88.07;100995.41;105676;1273;98087;-82
2023/08/17 06:16:51;;;;;;;19.80;13.50;;;;;;;24.44;88.06;100998.19;105644;1273;97913;-83
2023/08/17 06:19:37;;;;;;;15.00;12.00;;;;;;;24.57;88.00;101001.67;105645;1270;103138;-83
2023/08/17 06:22:22;;;;;;;12.30;10.90;;;;;;;24.66;87.59;101006.91;105774;1270;100185;-82
2023/08/17 06:25:08;;;;;;;13.10;11.50;;;;;;;24.73;87.03;101005.09;105763;1270;99010;-82
2023/08/17 06:27:54;;;;;;;13.80;11.50;;;;;;;24.82;86.97;101007.25;105487;1272;97988;-83
2023/08/17 06:30:39;;;;;;;13.10;11.50;;;;;;;24.89;86.40;101010.79;105665;1270;99784;-82
2023/08/17 06:33:25;;;;;;;15.50;10.70;;;;;;;24.96;85.57;101012.60;105663;1270;101400;-83
2023/08/17 06:36:13;;;;;;;12.10;10.80;;;;;;;25.01;85.20;101017.66;105609;1273;99183;-82
2023/08/17 06:38:58;;;;;;;13.60;9.60;;;;;;;25.06;84.92;101020.02;105616;1272;97996;-81
2023/08/17 06:41:44;;;;;;;12.00;10.20;;;;;;;25.12;84.41;101015.74;105720;1268;98002;-82
2023/08/17 06:44:30;;;;;;;10.30;9.30;;;;;;;25.16;83.63;101013.02;105718;1272;97975;-81
2023/08/17 06:47:16;;;;;;;13.00;9.50;;;;;;;25.21;83.02;101016.42;105426;1271;101370;-81
2023/08/17 06:50:02;;;;;;;11.00;9.90;;;;;;;25.27;82.73;101014.50;105695;1268;100362;-81
2023/08/17 06:52:47;;;;;;;11.40;9.60;;;;;;;25.32;82.47;101013.34;105259;1268;99642;-82
2023/08/17 06:55:33;;;;;;;12.70;9.50;;;;;;;25.38;82.20;101013.14;105564;1268;97895;-82
2023/08/17 06:58:18;;;;;;;11.90;9.60;;;;;;;25.44;82.06;101011.73;105792;1273;97882;-81
2023/08/17 07:01:04;;;;;;;11.60;9.10;;;;;;;25.50;81.50;101008.89;105686;1270;101911;-81
2023/08/17 07:03:50;;;;;;;12.60;9.40;;;;;;;25.54;80.83;101008.05;105751;1273;99159;-81
2023/08/17 07:06:35;;;;;;;14.80;9.70;;;;;;;25.59;80.33;101007.63;105730;1273;99099;-82
2023/08/17 07:09:21;;;;;;;10.10;8.50;;;;;;;25.65;80.33;101010.73;105609;1270;97971;-82
2023/08/17 07:12:07;;;;;;;10.10;9.10;;;;;;;25.71;79.69;101016.16;105676;1267;99666;-81
2023/08/17 07:14:53;;;;;;;12.70;9.10;;;;;;;25.77;79.32;101017.02;105498;1269;101446;-82
2023/08/17 07:17:38;;;;;;;14.40;8.10;;;;;;;25.84;78.65;101017.95;105744;1268;99970;-82
2023/08/17 07:20:24;;;;;;;10.40;8.60;;;;;;;25.92;78.24;101017.71;105640;1273;98749;-82
2023/08/17 07:23:10;;;;;;;10.10;8.40;;;;;;;26.00;77.96;101017.91;105898;1270;99383;-81
2023/08/17 07:25:55;;;;;;;12.90;9.10;;;;;;;26.09;77.77;101017.04;105696;1270;98502;-82
2023/08/17 07:28:41;;;;;;;9.70;8.10;;;;;;;26.18;76.85;101017.50;105689;1270;101352;-83
2023/08/17 07:31:26;;;;;;;11.30;7.80;;;;;;;26.27;76.56;101021.44;105656;1268;99995;-79
2023/08/17 07:34:12;;;;;;;11.60;8.20;;;;;;;26.35;75.25;101023.45;105155;1272;97950;-81
2023/08/17 07:36:57;;;;;;;12.90;8.40;;;;;;;26.40;74.67;101025.55;105658;1270;97818;-82
2023/08/17 07:39:43;;;;;;;11.20;7.60;;;;;;;26.47;74.25;101022.40;105714;1270;97932;-82
2023/08/17 07:42:28;;;;;;;14.20;8.80;;;;;;;26.55;74.07;101022.69;105822;1272;101456;-81
2023/08/17 07:45:14;;;;;;;10.60;8.90;;;;;;;26.65;74.11;101025.89;105691;1268;99277;-81
2023/08/17 07:48:00;;;;;;;9.00;8.10;;;;;;;26.74;73.49;101027.41;105625;1273;98017;-81
2023/08/17 07:50:51;;;;;;;13.60;8.20;;;;;;;26.82;73.41;101026.81;105655;1270;97948;-81
2023/08/17 07:53:37;;;;;;;12.80;7.90;;;;;;;26.90;73.57;101024.02;105669;1268;97950;-81
2023/08/17 07:56:22;;;;;;;12.20;8.50;;;;;;;26.99;73.19;101028.64;105797;1272;102445;-82
2023/08/17 07:59:08;;;;;;;12.90;7.50;;;;;;;27.06;72.75;101027.29;105721;1270;109064;-81
2023/08/17 08:01:53;;;;;;;10.00;8.70;;;;;;;27.11;72.61;101030.64;105667;1273;99504;-81
2023/08/17 08:04:39;;;;;;;12.60;8.30;;;;;;;27.18;72.14;101034.39;105538;1273;98065;-80
2023/08/17 08:07:25;;;;;;;12.70;8.70;;;;;;;27.25;71.69;101035.05;105661;1270;98019;-81
2023/08/17 08:10:10;;;;;;;18.90;8.80;;;;;;;27.33;71.61;101031.55;105595;1271;101494;-81
2023/08/17 08:12:56;;;;;;;11.50;9.40;;;;;;;27.42;71.36;101035.83;105927;1270;99139;-83
2023/08/17 08:15:41;;;;;;;12.40;8.70;;;;;;;27.48;71.27;101036.77;105532;1274;97988;-82
2023/08/17 08:18:27;;;;;;;12.40;8.50;;;;;;;27.56;71.23;101037.38;105489;1270;95911;-81
2023/08/17 08:21:12;;;;;;;11.50;9.00;;;;;;;27.62;70.06;101041.01;105789;1270;99589;-80
2023/08/17 08:23:57;;;;;;;10.20;8.80;;;;;;;27.65;69.99;101040.88;105832;1273;101447;-82
2023/08/17 08:26:43;;;;;;;11.90;8.80;;;;;;;27.72;69.86;101034.46;105664;1270;99200;-82
2023/08/17 08:29:28;;;;;;;11.40;8.50;;;;;;;27.77;69.14;101035.96;105525;1270;97976;-81
2023/08/17 08:32:14;;;;;;;16.20;9.40;;;;;;;27.83;69.23;101040.26;105432;1270;97990;-81
2023/08/17 08:34:59;;;;;;;10.20;8.40;;;;;;;27.90;68.63;101039.02;105593;1270;98094;-79
2023/08/17 08:37:44;;;;;;;12.90;8.70;;;;;;;27.99;68.64;101035.59;104418;1270;101523;-78
2023/08/17 08:40:30;;;;;;;10.20;8.90;;;;;;;28.05;68.41;101035.21;104449;1270;99280;-78
2023/08/17 08:43:16;;;;;;;12.80;10.10;;;;;;;28.11;68.42;101036.08;104429;1273;98422;-76
2023/08/17 08:46:02;;;;;;;16.30;9.20;;;;;;;28.18;68.06;101036.55;104443;1272;99247;-78
2023/08/17 08:48:51;;;;;;;13.90;9.80;;;;;;;28.27;67.36;101035.90;104424;1273;98624;-77
2023/08/17 08:51:41;;;;;;;12.30;10.30;;;;;;;28.34;67.29;101036.81;104466;1273;101351;-78
2023/08/17 08:54:28;;;;;;;;;;;;;;;28.41;67.13;101036.34;104388;1273;99182;-78
2023/08/17 08:57:14;;;;;;;17.00;11.80;;;;;;;28.47;66.82;101039.84;104379;1272;99335;-80
2023/08/17 08:59:59;;;;;;;10.90;9.80;;;;;;;28.49;66.33;101038.33;104361;1273;98007;-79
2023/08/17 09:02:45;;;;;;;10.80;9.70;;;;;;;28.54;67.67;101039.44;104437;1273;98492;-78
2023/08/17 09:05:34;;;;;;;13.00;9.90;;;;;;;28.63;67.35;101042.71;104442;1273;101375;-78
2023/08/17 09:08:27;;;;;;;11.60;10.10;;;;;;;28.66;66.46;101044.91;104397;1273;100350;-77
2023/08/17 09:11:12;;;;;;;11.00;10.00;;;;;;;28.71;66.56;101041.70;104452;1270;98001;-78
2023/08/17 09:13:58;;;;;;;11.10;10.00;;;;;;;28.76;65.94;101042.41;104406;1273;98038;-78
2023/08/17 09:16:43;;;;;;;12.70;10.30;;;;;;;28.77;65.81;101044.60;104399;1268;97997;-78
2023/08/17 09:19:31;;;;;;;14.90;9.80;;;;;;;28.78;65.58;101040.30;104487;1270;102081;-77
2023/08/17 09:22:40;;;;;;;11.30;9.30;;;;;;;28.79;65.17;101039.95;104604;1270;101740;-79
2023/08/17 09:25:26;;;;;;;14.50;9.80;;;;;;;28.85;66.36;101036.05;104358;1272;125345;-78
2023/08/17 09:28:14;;;;;;;10.80;9.70;;;;;;;28.92;66.42;101036.05;104439;1274;98010;-78
2023/08/17 09:31:03;;;;;;;11.30;10.20;;;;;;;28.98;65.49;101035.59;104442;1273;98632;-79
2023/08/17 09:33:51;;;;;;;10.50;9.60;;;;;;;29.06;65.12;101034.38;104505;1273;101397;-79
2023/08/17 09:36:37;;;;;;;12.40;9.80;;;;;;;29.08;64.61;101037.43;104444;1268;99202;-79
2023/08/17 09:39:22;;;;;;;12.60;9.30;;;;;;;29.13;65.15;101031.68;104337;1271;99310;-79
2023/08/17 09:42:09;;;;;;;11.60;9.10;;;;;;;29.25;66.04;101027.32;104452;1268;98015;-78
2023/08/17 09:44:55;;;;;;;15.60;10.30;;;;;;;29.39;65.82;101025.77;104465;1268;97977;-78
2023/08/17 09:47:42;;;;;;;14.90;9.80;;;;;;;29.51;64.99;101022.02;104564;1273;101383;-79
2023/08/17 09:50:28;;;;;;;14.80;10.00;;;;;;;29.58;64.88;101025.38;104374;1268;99979;-78
2023/08/17 09:53:15;;;;;;;13.50;10.40;;;;;;;29.59;63.11;101025.87;104555;1270;97969;-78
2023/08/17 09:56:02;;;;;;;17.70;10.20;;;;;;;29.59;62.52;101027.67;104493;1273;97991;-79
2023/08/17 09:58:47;;;;;;;12.30;9.60;;;;;;;29.63;63.52;101027.79;104351;1268;97999;-77
2023/08/17 10:01:33;;;;;;;11.40;9.20;;;;;;;29.73;63.46;101030.95;104551;1268;101889;-78
2023/08/17 10:04:23;;;;;;;16.60;9.10;;;;;;;29.82;63.35;101025.88;104445;1268;99236;-78
2023/08/17 10:07:10;;;;;;;13.70;9.20;;;;;;;29.91;62.95;101029.14;104525;1271;98090;-80
2023/08/17 10:10:03;;;;;;;10.10;9.00;;;;;;;29.98;62.58;101018.05;104416;1268;98267;-78
2023/08/17 10:12:58;;;;;;;16.00;9.70;;;;;;;30.04;61.85;101020.48;104366;1274;98620;-78
2023/08/17 10:16:01;;;;;;;14.10;9.90;;;;;;;30.05;61.33;101018.38;104573;1271;102132;-80
2023/08/17 10:18:56;;;;;;;10.90;8.40;;;;;;;30.05;60.58;101018.42;104490;1268;99111;-78
2023/08/17 10:21:56;;;;;;;10.20;8.20;;;;;;;30.05;60.28;101022.44;104654;1269;99043;-77
2023/08/17 10:24:43;;;;;;;9.30;7.80;;;;;;;30.07;60.20;101023.73;104421;1273;97994;-79
2023/08/17 10:27:29;;;;;;;9.80;8.80;;;;;;;30.09;59.98;101022.91;104382;1270;97898;-78
2023/08/17 10:30:14;;;;;;;9.70;8.70;;;;;;;30.12;59.89;101020.87;104422;1270;103157;-79
2023/08/17 10:33:00;;;;;;;10.30;7.80;;;;;;;30.19;60.09;101018.34;104389;1268;99167;-78
2023/08/17 10:35:47;;;;;;;11.80;7.70;;;;;;;30.27;60.10;101022.55;104418;1271;98436;-78
2023/08/17 10:38:32;;;;;;;15.40;7.50;;;;;;;30.34;59.22;101020.13;104599;1270;97929;-78
2023/08/17 10:41:18;;;;;;;12.10;7.00;;;;;;;30.43;58.52;101016.29;104431;1269;97993;-78
2023/08/17 10:44:04;;;;;;;8.40;7.60;;;;;;;30.53;58.38;101017.51;104466;1270;101774;-78
2023/08/17 10:46:49;;;;;;;8.10;7.30;;;;;;;30.59;57.01;101011.91;104447;1273;99141;-78
2023/08/17 10:49:35;;;;;;;10.20;7.50;;;;;;;30.61;56.45;101009.33;104440;1270;99317;-78
2023/08/17 10:52:30;;;;;;;8.90;7.80;;;;;;;30.68;56.29;101012.10;104529;1271;98534;-78
2023/08/17 10:55:15;;;;;;;8.80;7.30;;;;;;;30.73;56.42;101010.44;104434;1271;97992;-78
2023/08/17 10:58:01;;;;;;;12.60;7.30;;;;;;;30.79;55.75;101002.84;104549;1273;101426;-78
2023/08/17 11:00:46;;;;;;;7.80;7.10;;;;;;;30.86;56.29;101000.75;104410;1268;100380;-78
2023/08/17 11:03:33;;;;;;;12.90;7.40;;;;;;;30.95;56.47;100998.71;104330;1270;99064;-78
2023/08/17 11:06:18;;;;;;;7.60;6.90;;;;;;;31.03;56.28;100994.55;104415;1271;98005;-78
2023/08/17 11:09:07;;;;;;;10.10;7.20;;;;;;;31.11;55.84;100994.18;104315;1271;98026;-79
2023/08/17 11:11:56;;;;;;;9.40;6.50;;;;;;;31.18;54.60;100993.56;104505;1273;101663;-79
2023/08/17 11:14:44;;;;;;;15.60;6.80;;;;;;;31.27;54.38;100987.05;104440;1269;100046;-79
2023/08/17 11:17:30;;;;;;;8.60;6.40;;;;;;;31.36;53.82;100982.65;104429;1268;98660;-79
2023/08/17 11:20:15;;;;;;;7.30;6.40;;;;;;;31.46;53.69;100981.17;104442;1270;98057;-79
2023/08/17 11:23:01;;;;;;;7.60;6.90;;;;;;;31.55;53.40;100979.16;104473;1268;98491;-79
2023/08/17 11:25:47;;;;;;;9.10;7.00;;;;;;;31.62;53.39;100977.60;104593;1268;102663;-79
2023/08/17 11:28:37;;;;;;;7.30;6.70;;;;;;;31.69;53.33;100977.05;104468;1273;99097;-79
2023/08/17 11:31:23;;;;;;;8.00;6.10;;;;;;;31.80;53.02;100982.74;104591;1270;99045;-78
2023/08/17 11:34:13;;;;;;;10.30;6.00;;;;;;;31.89;51.94;100974.23;104576;1272;98018;-79
2023/08/17 11:36:59;;;;;;;7.70;6.30;;;;;;;31.91;51.25;100972.30;104479;1273;99691;-79
2023/08/17 11:39:45;;;;;;;7.50;6.10;;;;;;;31.97;51.83;100972.93;104597;1272;102984;-78
2023/08/17 11:42:30;;;;;;;10.40;5.90;;;;;;;32.06;50.92;100971.63;104374;1267;100450;-77
2023/08/17 11:45:15;;;;;;;6.60;4.10;;;;;;;32.15;49.60;100975.19;104549;1273;100217;-79
2023/08/17 11:48:01;;;;;;;6.40;4.80;;;;;;;32.23;48.62;100973.55;104668;1272;98105;-78
2023/08/17 11:50:48;;;;;;;5.30;4.80;;;;;;;32.32;48.85;100968.41;104731;1272;97975;-78
2023/08/17 11:53:39;;;;;;;6.40;5.30;;;;;;;32.38;48.97;100970.94;104672;1270;101363;-79
2023/08/17 11:56:24;;;;;;;7.90;4.40;;;;;;;32.44;48.10;100974.08;104744;1268;99184;-79
2023/08/17 11:59:19;;;;;;;5.70;4.80;;;;;;;32.48;47.62;100969.06;104563;1273;98536;-78
2023/08/17 12:02:05;;;;;;;5.10;4.30;;;;;;;32.50;46.63;100969.56;104345;1272;98016;-78
2023/08/17 12:04:52;;;;;;;6.90;3.60;;;;;;;32.55;46.44;100970.52;104464;1274;98484;-78
2023/08/17 12:07:37;;;;;;;3.30;2.80;;;;;;;32.63;45.23;100970.00;104710;1272;102110;-79
2023/08/17 12:10:23;;;;;;;3.90;3.30;;;;;;;32.70;44.17;100969.48;104729;1273;101128;-79
2023/08/17 12:13:12;;;;;;;4.80;2.60;;;;;;;32.80;43.25;100968.97;104484;1269;97996;-77
2023/08/17 12:15:58;;;;;;;4.90;3.20;;;;;;;32.89;42.67;100963.85;104410;1270;98090;-79
2023/08/17 12:18:47;;;;;;;3.50;2.90;;;;;;;32.95;42.65;100963.85;104572;1270;97930;-79
2023/08/17 12:21:33;;;;;;;6.00;2.80;;;;;;;33.03;43.36;100963.27;104689;1272;101387;-77
2023/08/17 12:24:19;;;;;;;4.10;2.60;;;;;;;33.12;42.26;100963.76;104368;1271;99619;-77
2023/08/17 12:27:08;;;;;;;3.60;3.10;;;;;;;33.18;42.10;100959.74;104530;1268;99241;-78
2023/08/17 12:29:54;;;;;;;3.20;2.50;;;;;;;33.23;41.44;100960.62;104614;1272;97940;-78
2023/08/17 12:32:39;;;;;;;3.80;3.10;;;;;;;33.29;40.92;100962.59;104753;1273;97911;-78